createdAt,value
2023-05-14T00:00:21.942Z,70.18
2023-05-14T00:01:21.746Z,70.16
2023-05-14T00:02:21.888Z,69.59
2023-05-14T00:03:21.797Z,69.63
2023-05-14T00:04:21.873Z,69.57
2023-05-14T00:05:21.805Z,69.90
2023-05-14T00:06:21.855Z,69.23
2023-05-14T00:07:21.937Z,69.68
2023-05-14T00:08:21.931Z,70.32
2023-05-14T00:09:21.957Z,70.02
2023-05-14T00:10:22.247Z,70.33
2023-05-14T00:11:22.299Z,70.30
2023-05-14T00:12:22.043Z,70.26
2023-05-14T00:13:22.070Z,69.69
2023-05-14T00:14:22.076Z,69.68
2023-05-14T00:15:22.116Z,69.37
2023-05-14T00:16:22.196Z,68.95
2023-05-14T00:17:22.202Z,68.78
2023-05-14T00:18:22.243Z,68.48
2023-05-14T00:19:22.304Z,69.27
2023-05-14T00:20:22.464Z,69.47
2023-05-14T00:21:22.325Z,69.00
2023-05-14T00:22:22.368Z,69.24
2023-05-14T00:23:22.387Z,69.08
2023-05-14T00:24:22.435Z,68.81
2023-05-14T00:25:22.510Z,69.41
2023-05-14T00:26:22.497Z,70.06
2023-05-14T00:27:22.559Z,70.20
2023-05-14T00:28:22.492Z,69.97
2023-05-14T00:29:22.534Z,70.00
2023-05-14T00:30:22.827Z,70.06
2023-05-14T00:31:22.685Z,70.70
2023-05-14T00:32:22.697Z,70.67
2023-05-14T00:33:22.656Z,71.34
2023-05-14T00:34:22.729Z,70.75
2023-05-14T00:35:22.813Z,71.46
2023-05-14T00:36:22.831Z,70.80
2023-05-14T00:37:22.880Z,70.52
2023-05-14T00:38:22.860Z,70.51
2023-05-14T00:39:22.887Z,70.24
2023-05-14T00:40:23.235Z,70.23
2023-05-14T00:41:22.953Z,70.00
2023-05-14T00:42:22.974Z,69.65
2023-05-14T00:43:23.005Z,69.73
2023-05-14T00:44:23.019Z,69.43
2023-05-14T00:45:23.010Z,69.42
2023-05-14T00:46:23.080Z,70.47
2023-05-14T00:47:23.139Z,70.76
2023-05-14T00:48:23.093Z,69.96
2023-05-14T00:49:23.104Z,69.23
2023-05-14T00:50:23.443Z,68.82
2023-05-14T00:51:23.167Z,69.08
2023-05-14T00:52:23.162Z,69.16
2023-05-14T00:53:23.154Z,69.15
2023-05-14T00:54:23.180Z,68.87
2023-05-14T00:55:23.212Z,68.89
2023-05-14T00:56:23.222Z,68.71
2023-05-14T00:57:23.220Z,68.42
2023-05-14T00:58:23.263Z,68.33
2023-05-14T00:59:23.267Z,68.42
2023-05-14T01:00:23.654Z,68.28
2023-05-14T01:01:23.357Z,68.07
2023-05-14T01:02:23.397Z,68.16
2023-05-14T01:03:23.498Z,67.77
2023-05-14T01:04:23.436Z,67.76
2023-05-14T01:05:23.474Z,67.55
2023-05-14T01:06:23.479Z,68.34
2023-05-14T01:07:23.535Z,68.70
2023-05-14T01:08:23.518Z,68.20
2023-05-14T01:09:23.551Z,68.51
2023-05-14T01:10:23.776Z,68.92
2023-05-14T01:11:23.625Z,68.46
2023-05-14T01:12:23.625Z,68.55
2023-05-14T01:13:23.665Z,67.96
2023-05-14T01:14:23.626Z,67.45
2023-05-14T01:15:23.681Z,67.14
2023-05-14T01:16:23.742Z,66.85
2023-05-14T01:17:23.692Z,66.93
2023-05-14T01:18:23.685Z,67.16
2023-05-14T01:19:23.748Z,67.57
2023-05-14T01:20:23.892Z,67.23
2023-05-14T01:21:23.764Z,67.08
2023-05-14T01:22:23.772Z,67.41
2023-05-14T01:23:23.792Z,67.79
2023-05-14T01:24:23.825Z,68.09
2023-05-14T01:25:23.839Z,67.63
2023-05-14T01:26:23.838Z,67.77
2023-05-14T01:27:23.898Z,67.61
2023-05-14T01:28:23.909Z,68.03
2023-05-14T01:29:23.955Z,68.33
2023-05-14T01:30:24.163Z,67.66
2023-05-14T01:31:24.022Z,67.59
2023-05-14T01:32:24.084Z,67.66
2023-05-14T01:33:24.029Z,67.25
2023-05-14T01:34:24.047Z,67.11
2023-05-14T01:35:24.067Z,67.09
2023-05-14T01:36:24.066Z,66.67
2023-05-14T01:37:24.046Z,66.70
2023-05-14T01:38:24.081Z,66.84
2023-05-14T01:39:24.093Z,67.01
2023-05-14T01:40:24.404Z,67.11
2023-05-14T01:41:24.162Z,67.96
2023-05-14T01:42:24.218Z,67.84
2023-05-14T01:43:24.323Z,67.70
2023-05-14T01:44:24.354Z,67.33
2023-05-14T01:45:24.288Z,68.51
2023-05-14T01:46:24.348Z,68.75
2023-05-14T01:47:24.348Z,69.08
2023-05-14T01:48:24.333Z,69.28
2023-05-14T01:49:24.408Z,69.86
2023-05-14T01:50:24.588Z,69.40
2023-05-14T01:51:24.516Z,69.22
2023-05-14T01:52:24.468Z,69.42
2023-05-14T01:53:24.517Z,69.65
2023-05-14T01:54:24.525Z,69.86
2023-05-14T01:55:24.585Z,69.96
2023-05-14T01:56:24.563Z,70.08
2023-05-14T01:57:24.651Z,70.36
2023-05-14T01:58:24.627Z,70.09
2023-05-14T01:59:24.633Z,69.65
2023-05-14T02:00:24.938Z,70.55
2023-05-14T02:01:24.739Z,69.40
2023-05-14T02:02:24.794Z,70.10
2023-05-14T02:03:24.798Z,70.35
2023-05-14T02:04:24.849Z,70.18
2023-05-14T02:05:24.835Z,69.97
2023-05-14T02:06:24.845Z,69.92
2023-05-14T02:07:24.850Z,70.27
2023-05-14T02:08:24.889Z,70.68
2023-05-14T02:09:24.973Z,70.45
2023-05-14T02:10:25.174Z,70.32
2023-05-14T02:11:25.045Z,70.93
2023-05-14T02:12:25.053Z,71.15
2023-05-14T02:13:25.091Z,71.23
2023-05-14T02:14:25.101Z,71.10
2023-05-14T02:15:25.134Z,70.64
2023-05-14T02:16:25.272Z,70.75
2023-05-14T02:17:25.244Z,71.33
2023-05-14T02:18:25.278Z,71.12
2023-05-14T02:19:25.285Z,70.74
2023-05-14T02:20:25.555Z,70.97
2023-05-14T02:21:25.403Z,70.46
2023-05-14T02:22:25.426Z,71.17
2023-05-14T02:23:31.278Z,71.09
2023-05-14T02:24:26.456Z,70.40
2023-05-14T02:25:25.435Z,69.74
2023-05-14T02:26:25.462Z,69.72
2023-05-14T02:27:25.435Z,70.36
2023-05-14T02:28:25.449Z,70.59
2023-05-14T02:29:25.422Z,70.64
2023-05-14T02:30:25.611Z,70.41
2023-05-14T02:31:25.452Z,69.40
2023-05-14T02:32:25.519Z,69.85
2023-05-14T02:33:25.414Z,69.18
2023-05-14T02:34:25.406Z,68.79
2023-05-14T02:35:25.404Z,68.57
2023-05-14T02:36:25.442Z,68.11
2023-05-14T02:37:25.469Z,67.37
2023-05-14T02:38:25.488Z,68.28
2023-05-14T02:39:25.516Z,67.62
2023-05-14T02:40:25.737Z,67.50
2023-05-14T02:41:25.532Z,67.73
2023-05-14T02:42:25.579Z,67.45
2023-05-14T02:43:25.584Z,67.78
2023-05-14T02:44:25.661Z,68.13
2023-05-14T02:45:25.672Z,67.65
2023-05-14T02:46:25.759Z,67.34
2023-05-14T02:47:25.862Z,67.34
2023-05-14T02:48:25.752Z,66.90
2023-05-14T02:49:25.802Z,66.95
2023-05-14T02:50:25.991Z,67.54
2023-05-14T02:51:25.794Z,67.80
2023-05-14T02:52:25.816Z,67.50
2023-05-14T02:53:25.835Z,67.38
2023-05-14T02:54:25.849Z,67.63
2023-05-14T02:55:25.865Z,68.15
2023-05-14T02:56:25.874Z,68.54
2023-05-14T02:57:25.913Z,68.35
2023-05-14T02:58:28.286Z,68.09
2023-05-14T02:59:25.956Z,68.06
2023-05-14T03:00:26.152Z,67.38
2023-05-14T03:01:25.891Z,66.79
2023-05-14T03:02:26.007Z,67.53
2023-05-14T03:03:25.874Z,68.23
2023-05-14T03:04:25.896Z,68.68
2023-05-14T03:05:25.891Z,69.51
2023-05-14T03:06:25.867Z,68.57
2023-05-14T03:07:25.845Z,68.18
2023-05-14T03:08:25.855Z,68.96
2023-05-14T03:09:25.919Z,68.47
2023-05-14T03:10:26.111Z,68.17
2023-05-14T03:11:25.891Z,69.08
2023-05-14T03:12:25.893Z,69.15
2023-05-14T03:13:25.847Z,68.88
2023-05-14T03:14:25.846Z,68.37
2023-05-14T03:15:25.859Z,68.08
2023-05-14T03:16:25.843Z,68.41
2023-05-14T03:17:25.833Z,67.99
2023-05-14T03:18:25.900Z,68.07
2023-05-14T03:19:25.825Z,67.86
2023-05-14T03:20:25.894Z,67.61
2023-05-14T03:21:25.782Z,67.36
2023-05-14T03:22:25.769Z,67.33
2023-05-14T03:23:25.798Z,67.17
2023-05-14T03:24:25.756Z,66.56
2023-05-14T03:25:25.732Z,66.78
2023-05-14T03:26:25.741Z,66.74
2023-05-14T03:27:25.734Z,67.07
2023-05-14T03:28:25.733Z,68.27
2023-05-14T03:29:25.739Z,68.46
2023-05-14T03:30:26.006Z,68.56
2023-05-14T03:31:25.776Z,68.73
2023-05-14T03:32:25.675Z,69.48
2023-05-14T03:33:25.689Z,70.00
2023-05-14T03:34:25.666Z,70.08
2023-05-14T03:35:25.679Z,70.50
2023-05-14T03:36:25.687Z,71.39
2023-05-14T03:37:25.647Z,71.47
2023-05-14T03:38:25.631Z,71.04
2023-05-14T03:39:25.657Z,71.56
2023-05-14T03:40:25.819Z,71.57
2023-05-14T03:41:25.632Z,71.68
2023-05-14T03:42:25.626Z,71.98
2023-05-14T03:43:25.629Z,71.57
2023-05-14T03:44:25.615Z,72.24
2023-05-14T03:45:25.595Z,72.16
2023-05-14T03:46:25.588Z,71.50
2023-05-14T03:47:25.642Z,72.38
2023-05-14T03:48:25.666Z,72.33
2023-05-14T03:49:25.590Z,72.04
2023-05-14T03:50:25.812Z,72.32
2023-05-14T03:51:25.556Z,71.48
2023-05-14T03:52:25.573Z,71.87
2023-05-14T03:53:25.563Z,71.45
2023-05-14T03:54:25.581Z,71.28
2023-05-14T03:55:25.584Z,70.97
2023-05-14T03:56:25.617Z,70.68
2023-05-14T03:57:25.659Z,70.05
2023-05-14T03:58:25.669Z,69.63
2023-05-14T03:59:25.769Z,68.83
2023-05-14T04:00:26.266Z,68.75
2023-05-14T04:01:25.822Z,68.40
2023-05-14T04:02:25.995Z,68.03
2023-05-14T04:03:26.048Z,67.35
2023-05-14T04:04:25.971Z,66.92
2023-05-14T04:05:25.917Z,67.29
2023-05-14T04:06:25.951Z,66.65
2023-05-14T04:07:26.018Z,66.29
2023-05-14T04:08:26.057Z,66.36
2023-05-14T04:09:26.035Z,66.17
2023-05-14T04:10:26.076Z,65.65
2023-05-14T04:11:26.095Z,65.81
2023-05-14T04:12:26.132Z,65.16
2023-05-14T04:13:26.210Z,65.00
2023-05-14T04:14:26.239Z,64.63
2023-05-14T04:15:26.215Z,64.80
2023-05-14T04:16:26.291Z,65.25
2023-05-14T04:17:26.476Z,64.81
2023-05-14T04:18:26.418Z,64.49
2023-05-14T04:19:26.353Z,64.31
2023-05-14T04:20:26.398Z,63.57
2023-05-14T04:21:26.404Z,64.20
2023-05-14T04:22:26.410Z,64.06
2023-05-14T04:23:26.429Z,64.38
2023-05-14T04:24:26.473Z,64.40
2023-05-14T04:25:26.473Z,65.01
2023-05-14T04:26:26.527Z,64.59
2023-05-14T04:27:26.518Z,64.78
2023-05-14T04:28:26.562Z,65.38
2023-05-14T04:29:26.567Z,65.42
2023-05-14T04:30:26.620Z,65.41
2023-05-14T04:31:26.642Z,65.50
2023-05-14T04:32:26.643Z,65.45
2023-05-14T04:33:26.657Z,66.03
2023-05-14T04:34:26.707Z,66.48
2023-05-14T04:35:26.752Z,66.65
2023-05-14T04:36:26.749Z,67.73
2023-05-14T04:37:26.789Z,68.52
2023-05-14T04:38:26.825Z,67.86
2023-05-14T04:39:26.845Z,69.08
2023-05-14T04:40:27.176Z,69.19
2023-05-14T04:41:26.927Z,69.93
2023-05-14T04:42:26.932Z,69.60
2023-05-14T04:43:27.010Z,69.89
2023-05-14T04:44:27.061Z,69.42
2023-05-14T04:45:27.044Z,69.30
2023-05-14T04:46:27.175Z,69.08
2023-05-14T04:47:27.158Z,68.64
2023-05-14T04:48:27.137Z,67.93
2023-05-14T04:49:27.136Z,68.13
2023-05-14T04:50:27.193Z,67.96
2023-05-14T04:51:27.222Z,67.60
2023-05-14T04:52:27.288Z,67.45
2023-05-14T04:53:27.322Z,66.76
2023-05-14T04:54:27.469Z,67.21
2023-05-14T04:55:27.438Z,66.98
2023-05-14T04:56:27.437Z,67.23
2023-05-14T04:57:27.431Z,67.10
2023-05-14T04:58:27.436Z,66.64
2023-05-14T04:59:27.438Z,66.98
2023-05-14T05:00:27.534Z,67.03
2023-05-14T05:01:27.606Z,66.27
2023-05-14T05:02:27.663Z,66.21
2023-05-14T05:03:27.656Z,65.97
2023-05-14T05:04:27.600Z,65.70
2023-05-14T05:05:27.658Z,65.77
2023-05-14T05:06:27.648Z,65.60
2023-05-14T05:07:27.704Z,65.64
2023-05-14T05:08:27.674Z,65.35
2023-05-14T05:09:27.694Z,65.61
2023-05-14T05:10:27.745Z,66.05
2023-05-14T05:11:27.794Z,66.38
2023-05-14T05:12:27.845Z,66.21
2023-05-14T05:13:27.843Z,65.89
2023-05-14T05:14:27.870Z,65.11
2023-05-14T05:15:27.907Z,65.04
2023-05-14T05:16:27.979Z,65.26
2023-05-14T05:17:27.938Z,65.54
2023-05-14T05:18:27.996Z,65.72
2023-05-14T05:19:39.545Z,65.16
2023-05-14T05:20:28.936Z,64.78
2023-05-14T05:21:28.005Z,64.66
2023-05-14T05:22:27.922Z,64.47
2023-05-14T05:23:27.898Z,64.50
2023-05-14T05:24:27.911Z,65.13
2023-05-14T05:25:27.935Z,65.26
2023-05-14T05:26:27.891Z,64.99
2023-05-14T05:27:27.913Z,64.76
2023-05-14T05:28:27.888Z,65.11
2023-05-14T05:29:27.899Z,64.94
2023-05-14T05:30:27.905Z,64.97
2023-05-14T05:31:27.925Z,64.81
2023-05-14T05:32:27.927Z,64.79
2023-05-14T05:33:27.873Z,65.05
2023-05-14T05:34:27.906Z,64.99
2023-05-14T05:35:27.871Z,65.44
2023-05-14T05:36:27.832Z,64.99
2023-05-14T05:37:27.881Z,65.01
2023-05-14T05:38:27.912Z,65.07
2023-05-14T05:39:27.919Z,65.11
2023-05-14T05:40:27.984Z,64.88
2023-05-14T05:41:28.015Z,64.75
2023-05-14T05:42:28.052Z,64.80
2023-05-14T05:43:28.136Z,64.44
2023-05-14T05:44:28.196Z,66.26
2023-05-14T05:45:28.191Z,66.05
2023-05-14T05:46:28.293Z,66.09
2023-05-14T05:47:28.380Z,66.07
2023-05-14T05:48:28.343Z,66.57
2023-05-14T05:49:28.376Z,66.04
2023-05-14T05:50:28.412Z,65.89
2023-05-14T05:51:28.442Z,65.67
2023-05-14T05:52:28.519Z,65.74
2023-05-14T05:53:28.567Z,65.54
2023-05-14T05:54:28.569Z,65.58
2023-05-14T05:55:28.598Z,65.39
2023-05-14T05:56:28.684Z,65.17
2023-05-14T05:57:28.660Z,65.14
2023-05-14T05:58:28.653Z,64.73
2023-05-14T05:59:28.669Z,64.51
2023-05-14T06:00:28.714Z,64.50
2023-05-14T06:01:28.750Z,64.35
2023-05-14T06:02:28.831Z,64.17
2023-05-14T06:03:28.828Z,64.14
2023-05-14T06:04:28.874Z,63.72
2023-05-14T06:05:28.963Z,63.76
2023-05-14T06:06:28.955Z,63.45
2023-05-14T06:07:28.914Z,63.21
2023-05-14T06:08:28.961Z,62.95
2023-05-14T06:09:29.017Z,62.70
2023-05-14T06:10:29.085Z,62.07
2023-05-14T06:11:29.042Z,61.29
2023-05-14T06:12:29.084Z,61.79
2023-05-14T06:13:29.135Z,61.89
2023-05-14T06:14:29.181Z,62.26
2023-05-14T06:15:29.205Z,62.23
2023-05-14T06:16:29.270Z,62.15
2023-05-14T06:17:29.296Z,61.82
2023-05-14T06:18:29.328Z,61.61
2023-05-14T06:19:29.345Z,61.43
2023-05-14T06:20:29.414Z,60.81
2023-05-14T06:21:29.421Z,60.74
2023-05-14T06:22:29.449Z,60.63
2023-05-14T06:23:29.438Z,60.67
2023-05-14T06:24:29.436Z,60.69
2023-05-14T06:25:29.484Z,61.06
2023-05-14T06:26:29.517Z,60.59
2023-05-14T06:27:29.546Z,59.88
2023-05-14T06:28:29.542Z,59.84
2023-05-14T06:29:29.587Z,59.87
2023-05-14T06:30:29.572Z,59.97
2023-05-14T06:31:29.641Z,59.65
2023-05-14T06:32:29.663Z,59.28
2023-05-14T06:33:29.707Z,59.30
2023-05-14T06:34:29.667Z,59.00
2023-05-14T06:35:29.705Z,59.21
2023-05-14T06:36:29.754Z,59.25
2023-05-14T06:37:29.701Z,58.64
2023-05-14T06:38:29.716Z,58.61
2023-05-14T06:39:29.729Z,58.65
2023-05-14T06:40:29.769Z,58.34
2023-05-14T06:41:29.780Z,57.95
2023-05-14T06:42:29.818Z,58.00
2023-05-14T06:43:29.866Z,57.33
2023-05-14T06:44:29.920Z,57.84
2023-05-14T06:45:31.174Z,57.09
2023-05-14T06:46:29.969Z,57.22
2023-05-14T06:47:29.978Z,57.65
2023-05-14T06:48:30.104Z,57.61
2023-05-14T06:49:30.041Z,57.62
2023-05-14T06:50:30.070Z,57.46
2023-05-14T06:51:30.102Z,57.32
2023-05-14T06:52:30.194Z,56.96
2023-05-14T06:53:30.237Z,57.05
2023-05-14T06:54:30.243Z,56.86
2023-05-14T06:55:30.299Z,55.97
2023-05-14T06:56:30.346Z,55.83
2023-05-14T06:57:30.361Z,55.80
2023-05-14T06:58:30.370Z,55.82
2023-05-14T06:59:30.449Z,56.41
2023-05-14T07:00:30.406Z,55.77
2023-05-14T07:01:30.594Z,54.93
2023-05-14T07:02:30.607Z,55.36
2023-05-14T07:03:30.543Z,54.88
2023-05-14T07:04:30.605Z,55.23
2023-05-14T07:05:30.636Z,54.42
2023-05-14T07:06:30.660Z,55.05
2023-05-14T07:07:30.667Z,55.24
2023-05-14T07:08:30.654Z,55.46
2023-05-14T07:09:30.697Z,55.58
2023-05-14T07:10:30.743Z,54.50
2023-05-14T07:11:30.766Z,55.14
2023-05-14T07:12:30.760Z,54.18
2023-05-14T07:13:30.758Z,54.80
2023-05-14T07:14:30.805Z,55.04
2023-05-14T07:15:30.860Z,54.70
2023-05-14T07:16:30.891Z,54.66
2023-05-14T07:17:30.986Z,54.88
2023-05-14T07:18:30.930Z,54.59
2023-05-14T07:19:30.979Z,53.96
2023-05-14T07:20:31.000Z,54.85
2023-05-14T07:21:31.046Z,55.06
2023-05-14T07:22:31.066Z,54.57
2023-05-14T07:23:31.132Z,55.08
2023-05-14T07:24:31.173Z,55.01
2023-05-14T07:25:31.190Z,55.29
2023-05-14T07:26:31.308Z,54.77
2023-05-14T07:27:31.254Z,55.09
2023-05-14T07:28:31.299Z,55.17
2023-05-14T07:29:31.355Z,54.58
2023-05-14T07:30:31.387Z,54.99
2023-05-14T07:31:31.485Z,54.48
2023-05-14T07:32:31.494Z,54.15
2023-05-14T07:33:31.489Z,53.91
2023-05-14T07:34:31.478Z,54.40
2023-05-14T07:35:31.560Z,53.79
2023-05-14T07:36:31.555Z,53.53
2023-05-14T07:37:31.619Z,53.78
2023-05-14T07:38:31.685Z,53.99
2023-05-14T07:39:31.675Z,54.12
2023-05-14T07:40:31.706Z,53.75
2023-05-14T07:41:31.712Z,53.47
2023-05-14T07:42:36.769Z,53.43
2023-05-14T07:43:32.732Z,53.44
2023-05-14T07:44:31.716Z,52.90
2023-05-14T07:45:31.685Z,53.20
2023-05-14T07:46:31.741Z,52.78
2023-05-14T07:47:31.742Z,52.50
2023-05-14T07:48:31.719Z,52.33
2023-05-14T07:49:31.686Z,52.39
2023-05-14T07:50:31.690Z,52.30
2023-05-14T07:51:31.674Z,51.76
2023-05-14T07:52:31.626Z,51.40
2023-05-14T07:53:31.677Z,52.32
2023-05-14T07:54:31.680Z,53.41
2023-05-14T07:55:31.645Z,53.26
2023-05-14T07:56:31.645Z,52.75
2023-05-14T07:57:31.628Z,52.25
2023-05-14T07:58:31.655Z,52.77
2023-05-14T07:59:31.721Z,52.61
2023-05-14T08:00:31.768Z,52.09
2023-05-14T08:01:31.815Z,50.38
2023-05-14T08:02:31.959Z,50.63
2023-05-14T08:03:31.966Z,50.06
2023-05-14T08:04:31.997Z,50.12
2023-05-14T08:05:32.004Z,50.08
2023-05-14T08:06:31.997Z,49.94
2023-05-14T08:07:32.020Z,49.17
2023-05-14T08:08:32.064Z,49.08
2023-05-14T08:09:32.118Z,47.71
2023-05-14T08:10:32.239Z,47.78
2023-05-14T08:11:32.233Z,47.46
2023-05-14T08:12:32.247Z,47.27
2023-05-14T08:13:32.244Z,48.19
2023-05-14T08:14:32.301Z,47.71
2023-05-14T08:15:32.309Z,47.09
2023-05-14T08:16:32.350Z,48.00
2023-05-14T08:17:32.393Z,48.43
2023-05-14T08:18:32.413Z,48.09
2023-05-14T08:19:32.425Z,46.67
2023-05-14T08:20:32.452Z,46.72
2023-05-14T08:21:32.507Z,47.13
2023-05-14T08:22:32.502Z,47.04
2023-05-14T08:23:32.536Z,46.38
2023-05-14T08:24:32.586Z,47.40
2023-05-14T08:25:32.585Z,46.57
2023-05-14T08:26:32.592Z,46.87
2023-05-14T08:27:32.657Z,45.82
2023-05-14T08:28:32.637Z,45.73
2023-05-14T08:29:32.715Z,45.96
2023-05-14T08:30:32.770Z,46.45
2023-05-14T08:31:32.832Z,46.23
2023-05-14T08:32:32.880Z,45.65
2023-05-14T08:33:32.801Z,45.58
2023-05-14T08:34:32.859Z,45.22
2023-05-14T08:35:32.826Z,44.48
2023-05-14T08:36:32.882Z,44.51
2023-05-14T08:37:32.867Z,43.35
2023-05-14T08:38:32.921Z,42.76
2023-05-14T08:39:32.929Z,42.47
2023-05-14T08:40:32.966Z,41.86
2023-05-14T08:41:33.005Z,42.13
2023-05-14T08:42:33.008Z,42.74
2023-05-14T08:43:33.040Z,42.87
2023-05-14T08:44:33.151Z,42.34
2023-05-14T08:45:33.116Z,42.00
2023-05-14T08:46:33.148Z,41.28
2023-05-14T08:47:33.193Z,41.23
2023-05-14T08:48:33.311Z,41.92
2023-05-14T08:49:33.283Z,40.87
2023-05-14T08:50:33.271Z,40.27
2023-05-14T08:51:33.281Z,40.48
2023-05-14T08:52:33.340Z,40.04
2023-05-14T08:53:33.383Z,39.86
2023-05-14T08:54:33.430Z,39.82
2023-05-14T08:55:33.458Z,39.76
2023-05-14T08:56:33.479Z,39.89
2023-05-14T08:57:33.477Z,40.93
2023-05-14T08:58:33.514Z,41.13
2023-05-14T08:59:33.547Z,40.45
2023-05-14T09:00:33.617Z,40.51
2023-05-14T09:01:33.658Z,39.42
2023-05-14T09:02:33.663Z,40.21
2023-05-14T09:03:33.681Z,41.59
2023-05-14T09:04:33.733Z,42.82
2023-05-14T09:05:33.732Z,42.29
2023-05-14T09:06:33.782Z,41.74
2023-05-14T09:07:33.808Z,41.88
2023-05-14T09:08:33.898Z,42.16
2023-05-14T09:09:33.861Z,41.46
2023-05-14T09:10:33.953Z,40.66
2023-05-14T09:11:33.946Z,40.19
2023-05-14T09:12:33.974Z,40.15
2023-05-14T09:13:34.005Z,41.04
2023-05-14T09:14:34.080Z,40.41
2023-05-14T09:15:34.060Z,39.66
2023-05-14T09:16:34.116Z,39.32
2023-05-14T09:17:34.156Z,38.53
2023-05-14T09:18:34.109Z,37.94
2023-05-14T09:19:34.160Z,39.69
2023-05-14T09:20:34.163Z,39.85
2023-05-14T09:21:34.209Z,40.58
2023-05-14T09:22:34.245Z,40.40
2023-05-14T09:23:34.279Z,41.46
2023-05-14T09:24:34.423Z,41.32
2023-05-14T09:25:34.361Z,42.07
2023-05-14T09:26:34.369Z,42.08
2023-05-14T09:27:34.443Z,42.06
2023-05-14T09:28:34.530Z,40.93
2023-05-14T09:29:34.501Z,41.69
2023-05-14T09:30:34.513Z,41.98
2023-05-14T09:31:34.576Z,41.78
2023-05-14T09:32:34.664Z,41.09
2023-05-14T09:33:34.557Z,39.98
2023-05-14T09:34:34.651Z,41.34
2023-05-14T09:35:34.673Z,41.81
2023-05-14T09:36:34.705Z,41.24
2023-05-14T09:37:34.698Z,41.23
2023-05-14T09:38:34.785Z,40.99
2023-05-14T09:39:34.755Z,40.64
2023-05-14T09:40:34.760Z,40.63
2023-05-14T09:41:34.804Z,40.55
2023-05-14T09:42:34.921Z,40.29
2023-05-14T09:43:34.870Z,39.50
2023-05-14T09:44:34.931Z,39.19
2023-05-14T09:45:34.944Z,40.56
2023-05-14T09:46:34.977Z,40.48
2023-05-14T09:47:35.110Z,40.77
2023-05-14T09:48:35.115Z,40.51
2023-05-14T09:49:35.097Z,40.49
2023-05-14T09:50:35.111Z,40.96
2023-05-14T09:51:35.131Z,43.63
2023-05-14T09:52:35.184Z,43.12
2023-05-14T09:53:35.187Z,42.61
2023-05-14T09:54:35.194Z,42.55
2023-05-14T09:55:35.246Z,43.03
2023-05-14T09:56:35.256Z,42.67
2023-05-14T09:57:35.326Z,43.23
2023-05-14T09:58:35.374Z,43.33
2023-05-14T09:59:35.429Z,43.34
2023-05-14T10:00:35.515Z,44.79
2023-05-14T10:01:35.498Z,44.80
2023-05-14T10:02:35.589Z,44.40
2023-05-14T10:03:35.576Z,43.96
2023-05-14T10:04:35.624Z,44.13
2023-05-14T10:06:11.009Z,44.65
2023-05-14T10:07:11.008Z,44.09
2023-05-14T10:08:11.019Z,44.80
2023-05-14T10:09:10.984Z,44.97
2023-05-14T10:10:10.979Z,44.16
2023-05-14T10:11:10.967Z,43.57
2023-05-14T10:12:10.977Z,43.40
2023-05-14T10:13:10.981Z,42.98
2023-05-14T10:14:10.951Z,42.58
2023-05-14T10:15:10.963Z,42.47
2023-05-14T10:16:10.958Z,42.35
2023-05-14T10:17:10.981Z,41.92
2023-05-14T10:18:11.019Z,42.23
2023-05-14T10:19:10.969Z,41.95
2023-05-14T10:20:10.952Z,42.03
2023-05-14T10:21:10.917Z,41.13
2023-05-14T10:22:10.917Z,41.08
2023-05-14T10:23:10.911Z,40.74
2023-05-14T10:24:10.875Z,40.52
2023-05-14T10:25:10.914Z,39.83
2023-05-14T10:26:10.867Z,40.10
2023-05-14T10:27:10.869Z,39.88
2023-05-14T10:28:10.861Z,39.79
2023-05-14T10:29:10.858Z,39.95
2023-05-14T10:30:10.858Z,39.58
2023-05-14T10:31:10.956Z,40.09
2023-05-14T10:32:11.207Z,40.22
2023-05-14T10:33:10.849Z,40.61
2023-05-14T10:34:10.810Z,40.15
2023-05-14T10:35:10.804Z,40.59
2023-05-14T10:36:10.832Z,40.10
2023-05-14T10:37:10.793Z,39.98
2023-05-14T10:38:10.789Z,40.42
2023-05-14T10:39:10.814Z,40.71
2023-05-14T10:40:10.812Z,40.44
2023-05-14T10:41:10.732Z,40.37
2023-05-14T10:42:10.753Z,40.57
2023-05-14T10:43:10.772Z,40.47
2023-05-14T10:44:10.745Z,40.84
2023-05-14T10:45:10.735Z,40.53
2023-05-14T10:46:10.762Z,40.15
2023-05-14T10:47:10.760Z,40.30
2023-05-14T10:48:10.864Z,40.55
2023-05-14T10:49:10.814Z,40.61
2023-05-14T10:50:10.862Z,41.55
2023-05-14T10:51:10.927Z,41.31
2023-05-14T10:52:10.929Z,41.12
2023-05-14T10:53:11.003Z,40.87
2023-05-14T10:54:11.036Z,40.93
2023-05-14T10:55:11.037Z,41.04
2023-05-14T10:56:11.111Z,41.25
2023-05-14T10:57:11.119Z,42.11
2023-05-14T10:58:11.124Z,41.87
2023-05-14T10:59:11.162Z,41.66
2023-05-14T11:00:11.187Z,41.74
2023-05-14T11:01:11.256Z,41.22
2023-05-14T11:02:11.359Z,41.61
2023-05-14T11:03:11.388Z,41.52
2023-05-14T11:04:11.473Z,41.28
2023-05-14T11:05:11.417Z,41.81
2023-05-14T11:06:11.418Z,41.77
2023-05-14T11:07:11.467Z,41.51
2023-05-14T11:08:11.456Z,41.46
2023-05-14T11:09:11.498Z,41.19
2023-05-14T11:10:11.521Z,41.48
2023-05-14T11:11:11.563Z,41.87
2023-05-14T11:12:11.562Z,41.82
2023-05-14T11:13:11.603Z,41.58
2023-05-14T11:14:11.648Z,41.53
2023-05-14T11:15:11.649Z,41.77
2023-05-14T11:16:22.443Z,41.88
2023-05-14T11:17:12.758Z,42.80
2023-05-14T11:18:11.708Z,42.58
2023-05-14T11:19:11.773Z,42.00
2023-05-14T11:20:11.710Z,41.53
2023-05-14T11:21:11.638Z,41.27
2023-05-14T11:22:11.614Z,41.76
2023-05-14T11:23:11.639Z,41.55
2023-05-14T11:24:11.635Z,42.44
2023-05-14T11:25:11.622Z,42.15
2023-05-14T11:26:11.644Z,41.85
2023-05-14T11:27:11.636Z,42.27
2023-05-14T11:28:11.633Z,43.06
2023-05-14T11:29:11.571Z,43.66
2023-05-14T11:30:11.642Z,43.06
2023-05-14T11:31:11.692Z,42.53
2023-05-14T11:32:11.689Z,42.43
2023-05-14T11:33:11.773Z,43.42
2023-05-14T11:34:11.705Z,42.05
2023-05-14T11:35:11.725Z,42.90
2023-05-14T11:36:11.789Z,42.56
2023-05-14T11:37:11.838Z,41.99
2023-05-14T11:38:11.834Z,42.08
2023-05-14T11:39:11.851Z,42.15
2023-05-14T11:40:11.905Z,41.71
2023-05-14T11:41:11.968Z,42.11
2023-05-14T11:42:11.968Z,42.58
2023-05-14T11:43:11.997Z,42.62
2023-05-14T11:44:12.049Z,42.32
2023-05-14T11:45:12.051Z,41.72
2023-05-14T11:46:12.133Z,41.28
2023-05-14T11:47:12.159Z,41.14
2023-05-14T11:48:12.121Z,41.42
2023-05-14T11:49:12.137Z,41.32
2023-05-14T11:50:12.194Z,40.71
2023-05-14T11:51:12.146Z,40.92
2023-05-14T11:52:12.185Z,41.94
2023-05-14T11:53:12.240Z,41.12
2023-05-14T11:54:12.309Z,41.06
2023-05-14T11:55:12.356Z,41.77
2023-05-14T11:56:12.398Z,41.52
2023-05-14T11:57:12.438Z,42.52
2023-05-14T11:58:12.461Z,41.90
2023-05-14T11:59:12.462Z,42.05
2023-05-14T12:00:12.543Z,42.55
2023-05-14T12:01:12.581Z,42.27
2023-05-14T12:02:12.649Z,41.65
2023-05-14T12:03:12.702Z,41.83
2023-05-14T12:04:12.665Z,42.44
2023-05-14T12:05:12.676Z,42.76
2023-05-14T12:06:12.679Z,42.62
2023-05-14T12:07:12.744Z,42.06
2023-05-14T12:08:12.764Z,43.52
2023-05-14T12:09:12.772Z,45.24
2023-05-14T12:10:12.875Z,44.34
2023-05-14T12:11:12.893Z,44.20
2023-05-14T12:12:12.973Z,46.75
2023-05-14T12:13:12.935Z,48.98
2023-05-14T12:14:12.984Z,49.03
2023-05-14T12:15:13.040Z,49.34
2023-05-14T12:16:13.071Z,48.67
2023-05-14T12:17:13.069Z,49.97
2023-05-14T12:18:23.543Z,50.47
2023-05-14T12:19:14.144Z,48.65
2023-05-14T12:20:13.087Z,48.88
2023-05-14T12:21:13.081Z,48.56
2023-05-14T12:22:13.067Z,49.33
2023-05-14T12:23:13.058Z,48.67
2023-05-14T12:24:13.100Z,49.39
2023-05-14T12:25:13.042Z,48.12
2023-05-14T12:26:13.034Z,48.25
2023-05-14T12:27:13.013Z,49.49
2023-05-14T12:28:13.034Z,48.79
2023-05-14T12:29:13.047Z,47.48
2023-05-14T12:30:21.410Z,48.82
2023-05-14T12:31:14.148Z,49.35
2023-05-14T12:32:13.048Z,49.44
2023-05-14T12:33:13.029Z,48.10
2023-05-14T12:34:12.988Z,49.80
2023-05-14T12:35:12.999Z,49.29
2023-05-14T12:36:21.143Z,49.01
2023-05-14T12:37:14.011Z,48.30
2023-05-14T12:38:12.995Z,47.35
2023-05-14T12:39:12.968Z,47.82
2023-05-14T12:40:13.155Z,47.35
2023-05-14T12:41:12.935Z,47.48
2023-05-14T12:42:12.958Z,47.37
2023-05-14T12:43:12.920Z,48.38
2023-05-14T12:44:12.970Z,49.54
2023-05-14T12:45:12.921Z,48.55
2023-05-14T12:46:12.937Z,48.18
2023-05-14T12:47:13.020Z,48.55
2023-05-14T12:48:12.983Z,46.78
2023-05-14T12:49:12.886Z,46.26
2023-05-14T12:50:12.906Z,47.41
2023-05-14T12:51:12.929Z,46.50
2023-05-14T12:53:12.989Z,47.99
2023-05-14T12:54:12.983Z,48.48